Weather at Winch Airfield

Public forecast

Using degrees Fahrenheit for public forecast. Weather courtesy of forecast.io.

Closest aviation weather report (METAR) to Winch Airfield

Closest report is Alexander Field South Wood County Airport, 8.7 nm (16.1 km) SSE. Retrieved 2021/06/23 01:54 UTC (22 minutes ago):

KISW 230154Z AUTO 06004KT 10SM CLR 17/05 A2992 RMK AO2 SLP133 T01670050

Closest aviation forecast (TAF) to Winch Airfield

Closest forecast is Central Wisconsin Airport, 19.9 nm (36.9 km) NNE. Retrieved 2021-06-23 00:39 UTC (2 hours ago):

TAF KCWA 222336Z 2300/2324 26005KT P6SM SCT070 FM230300 15004KT P6SM SCT250 FM230900 16005KT P6SM BKN070 FM231200 18008KT P6SM BKN035 TEMPO 2313/2317 BKN015 FM231700 19008G15KT P6SM BKN025 FM231900 19009G16KT P6SM SCT035 AMD LTD TO CLD VIS AND WIND 2303/2311